createdAt,value
2022-11-18T00:01:45.453Z,95085.38
2022-11-18T00:06:37.150Z,95074.41
2022-11-18T00:11:48.262Z,95078.59
2022-11-18T00:16:39.937Z,95077.81
2022-11-18T00:21:31.675Z,95082.25
2022-11-18T00:26:23.489Z,95085.38
2022-11-18T00:31:15.320Z,95080.94
2022-11-18T00:36:11.210Z,95075.72
2022-11-18T00:41:09.299Z,95082.00
2022-11-18T00:46:01.734Z,95078.84
2022-11-18T00:50:57.996Z,95089.84
2022-11-18T00:55:50.605Z,95095.63
2022-11-18T01:00:45.018Z,95073.31
2022-11-18T01:05:38.002Z,95070.97
2022-11-18T01:10:30.153Z,95074.63
2022-11-18T01:15:21.862Z,95080.63
2022-11-18T01:20:15.226Z,95083.78
2022-11-18T01:25:07.580Z,95086.13
2022-11-18T01:29:59.251Z,95090.88
2022-11-18T01:34:50.921Z,95069.44
2022-11-18T01:45:32.194Z,95117.59
2022-11-18T01:50:24.548Z,95119.41
2022-11-18T01:55:26.687Z,95118.91
2022-11-18T02:00:18.612Z,95135.38
2022-11-18T02:05:11.706Z,95141.13
2022-11-18T02:10:07.173Z,95130.66
2022-11-18T02:15:00.546Z,95138.97
2022-11-18T02:20:12.129Z,95142.88
2022-11-18T02:25:46.937Z,95148.34
2022-11-18T02:31:06.421Z,95157.72
2022-11-18T02:36:13.055Z,95151.19
2022-11-18T02:41:09.197Z,95161.59
2022-11-18T02:46:08.998Z,95168.84
2022-11-18T02:51:05.725Z,95175.44
2022-11-18T02:56:00.106Z,95162.09
2022-11-18T03:00:57.982Z,95172.03
2022-11-18T03:06:23.606Z,95171.56
2022-11-18T03:11:29.410Z,95184.91
2022-11-18T03:16:34.938Z,95173.41
2022-11-18T03:21:37.309Z,95185.16
2022-11-18T03:26:38.817Z,95188.56
2022-11-18T03:32:03.697Z,95192.47
2022-11-18T03:37:05.245Z,95204.50
2022-11-18T03:42:41.423Z,95208.38
2022-11-18T03:47:40.781Z,95209.16
2022-11-18T03:52:37.535Z,95216.19
2022-11-18T03:58:04.066Z,95232.59
2022-11-18T04:02:55.986Z,95238.78
2022-11-18T04:08:02.603Z,95240.03
2022-11-18T04:13:06.883Z,95236.88
2022-11-18T04:17:59.606Z,95224.84
2022-11-18T04:22:51.363Z,95235.31
2022-11-18T04:27:43.145Z,95233.97
2022-11-18T04:32:34.929Z,95252.47
2022-11-18T04:37:26.780Z,95272.53
2022-11-18T04:42:18.630Z,95273.56
2022-11-18T04:47:10.683Z,95276.06
2022-11-18T04:52:03.098Z,95274.38
2022-11-18T04:56:56.070Z,95293.91
2022-11-18T05:22:52.404Z,95331.34
2022-11-18T15:07:00.204Z,95766.81
